Terminal Aerodrome Forecast
Issued by NWS Lake Charles, LA

Home | Current Version | Previous Version | Text Only | Print | Product List | Glossary On
Versions: 1 2 3 4 5 6 7 8 9 10 11 12 13
000
FTUS44 KLCH 200520
TAFBPT
TAF
KBPT 200520Z 2006/2106 08007KT P6SM FEW035 BKN150
     FM201300 11013G19KT P6SM FEW015 BKN035
     FM201700 12015G24KT P6SM VCSH SCT025 BKN050 PROB30 2018/2024
      4SM SHRA
     FM210000 12010KT P6SM VCSH SCT040 BKN080=

USA.gov is the U.S. government's official web portal to all federal, state and local government web resources and services.